sensor_id;sensor_type;location;lat;lon;timestamp;temperature;humidity
5218;DHT22;26539;51.064;6.346;2024-03-06T00:02:05;7.90;1.00
5218;DHT22;26539;51.064;6.346;2024-03-06T00:04:31;7.90;1.00
5218;DHT22;26539;51.064;6.346;2024-03-06T00:06:56;7.90;1.00
5218;DHT22;26539;51.064;6.346;2024-03-06T00:09:23;7.90;1.00
5218;DHT22;26539;51.064;6.346;2024-03-06T00:11:48;7.80;1.00
5218;DHT22;26539;51.064;6.346;2024-03-06T00:14:16;7.80;1.00
5218;DHT22;26539;51.064;6.346;2024-03-06T00:16:42;7.80;1.00
5218;DHT22;26539;51.064;6.346;2024-03-06T00:19:07;7.70;1.00
5218;DHT22;26539;51.064;6.346;2024-03-06T00:21:33;7.80;1.00
5218;DHT22;26539;51.064;6.346;2024-03-06T00:23:59;7.70;1.00
5218;DHT22;26539;51.064;6.346;2024-03-06T00:26:24;7.70;1.00
5218;DHT22;26539;51.064;6.346;2024-03-06T00:28:49;7.70;1.00
5218;DHT22;26539;51.064;6.346;2024-03-06T00:31:15;7.60;1.00
5218;DHT22;26539;51.064;6.346;2024-03-06T00:33:40;7.60;1.00
5218;DHT22;26539;51.064;6.346;2024-03-06T00:36:06;7.60;1.00
5218;DHT22;26539;51.064;6.346;2024-03-06T00:38:32;7.50;1.00
5218;DHT22;26539;51.064;6.346;2024-03-06T00:40:57;7.50;1.00
5218;DHT22;26539;51.064;6.346;2024-03-06T00:43:23;7.40;1.00
5218;DHT22;26539;51.064;6.346;2024-03-06T00:45:49;7.40;1.00
5218;DHT22;26539;51.064;6.346;2024-03-06T00:48:14;7.30;1.00
5218;DHT22;26539;51.064;6.346;2024-03-06T00:50:40;7.20;1.00
5218;DHT22;26539;51.064;6.346;2024-03-06T00:53:05;7.20;1.00
5218;DHT22;26539;51.064;6.346;2024-03-06T00:55:31;7.10;1.00
5218;DHT22;26539;51.064;6.346;2024-03-06T00:57:56;7.10;1.00
5218;DHT22;26539;51.064;6.346;2024-03-06T01:00:22;7.10;1.00
5218;DHT22;26539;51.064;6.346;2024-03-06T01:02:47;7.10;1.00
5218;DHT22;26539;51.064;6.346;2024-03-06T01:05:13;7.10;1.00
5218;DHT22;26539;51.064;6.346;2024-03-06T01:07:38;7.10;1.00
5218;DHT22;26539;51.064;6.346;2024-03-06T01:10:05;7.10;1.00
5218;DHT22;26539;51.064;6.346;2024-03-06T01:12:32;7.10;1.00
5218;DHT22;26539;51.064;6.346;2024-03-06T01:14:57;7.10;1.00
5218;DHT22;26539;51.064;6.346;2024-03-06T01:17:23;7.10;1.00
5218;DHT22;26539;51.064;6.346;2024-03-06T01:19:49;7.10;1.00
5218;DHT22;26539;51.064;6.346;2024-03-06T01:22:14;7.00;1.00
5218;DHT22;26539;51.064;6.346;2024-03-06T01:24:40;7.00;1.00
5218;DHT22;26539;51.064;6.346;2024-03-06T01:27:05;7.00;1.00
5218;DHT22;26539;51.064;6.346;2024-03-06T01:29:31;7.00;1.00
5218;DHT22;26539;51.064;6.346;2024-03-06T01:31:56;6.90;1.00
5218;DHT22;26539;51.064;6.346;2024-03-06T01:34:22;6.90;1.00
5218;DHT22;26539;51.064;6.346;2024-03-06T01:36:48;6.90;1.00
5218;DHT22;26539;51.064;6.346;2024-03-06T01:39:13;6.80;1.00
5218;DHT22;26539;51.064;6.346;2024-03-06T01:41:48;6.80;1.00
5218;DHT22;26539;51.064;6.346;2024-03-06T01:44:14;6.70;1.00
5218;DHT22;26539;51.064;6.346;2024-03-06T01:46:40;6.70;1.00
5218;DHT22;26539;51.064;6.346;2024-03-06T01:49:06;6.70;1.00
5218;DHT22;26539;51.064;6.346;2024-03-06T01:51:32;6.70;1.00
5218;DHT22;26539;51.064;6.346;2024-03-06T01:53:57;6.70;1.00
5218;DHT22;26539;51.064;6.346;2024-03-06T01:56:23;6.70;1.00
5218;DHT22;26539;51.064;6.346;2024-03-06T01:58:49;6.80;1.00
5218;DHT22;26539;51.064;6.346;2024-03-06T02:01:15;6.70;1.00
5218;DHT22;26539;51.064;6.346;2024-03-06T02:03:41;6.70;1.00
5218;DHT22;26539;51.064;6.346;2024-03-06T02:06:07;6.60;1.00
5218;DHT22;26539;51.064;6.346;2024-03-06T02:08:32;6.60;1.00
5218;DHT22;26539;51.064;6.346;2024-03-06T02:10:58;6.50;1.00
5218;DHT22;26539;51.064;6.346;2024-03-06T02:13:27;6.50;1.00
5218;DHT22;26539;51.064;6.346;2024-03-06T02:15:52;6.40;1.00
5218;DHT22;26539;51.064;6.346;2024-03-06T02:18:18;6.40;1.00
5218;DHT22;26539;51.064;6.346;2024-03-06T02:20:43;6.30;1.00
5218;DHT22;26539;51.064;6.346;2024-03-06T02:23:11;6.30;1.00
5218;DHT22;26539;51.064;6.346;2024-03-06T02:25:36;6.20;1.00
5218;DHT22;26539;51.064;6.346;2024-03-06T02:28:02;6.20;1.00
5218;DHT22;26539;51.064;6.346;2024-03-06T02:30:27;6.10;1.00
5218;DHT22;26539;51.064;6.346;2024-03-06T02:32:53;6.10;1.00
5218;DHT22;26539;51.064;6.346;2024-03-06T02:35:18;6.10;1.00
5218;DHT22;26539;51.064;6.346;2024-03-06T02:37:44;6.10;1.00
5218;DHT22;26539;51.064;6.346;2024-03-06T02:40:10;6.10;1.00
5218;DHT22;26539;51.064;6.346;2024-03-06T02:42:38;6.10;1.00
5218;DHT22;26539;51.064;6.346;2024-03-06T02:45:04;6.10;1.00
5218;DHT22;26539;51.064;6.346;2024-03-06T02:47:30;6.00;1.00
5218;DHT22;26539;51.064;6.346;2024-03-06T02:49:55;6.10;1.00
5218;DHT22;26539;51.064;6.346;2024-03-06T02:52:21;6.00;1.00
5218;DHT22;26539;51.064;6.346;2024-03-06T02:54:46;6.00;1.00
5218;DHT22;26539;51.064;6.346;2024-03-06T02:57:12;6.00;1.00
5218;DHT22;26539;51.064;6.346;2024-03-06T02:59:39;5.90;1.00
5218;DHT22;26539;51.064;6.346;2024-03-06T03:02:05;5.90;1.00
5218;DHT22;26539;51.064;6.346;2024-03-06T03:04:30;5.90;1.00
5218;DHT22;26539;51.064;6.346;2024-03-06T03:06:55;5.90;1.00
5218;DHT22;26539;51.064;6.346;2024-03-06T03:09:21;5.80;1.00
5218;DHT22;26539;51.064;6.346;2024-03-06T03:11:46;5.80;1.00
5218;DHT22;26539;51.064;6.346;2024-03-06T03:14:12;5.70;1.00
5218;DHT22;26539;51.064;6.346;2024-03-06T03:16:37;5.70;1.00
5218;DHT22;26539;51.064;6.346;2024-03-06T03:19:03;5.70;1.00
5218;DHT22;26539;51.064;6.346;2024-03-06T03:21:28;5.60;1.00
5218;DHT22;26539;51.064;6.346;2024-03-06T03:23:54;5.60;1.00
5218;DHT22;26539;51.064;6.346;2024-03-06T03:26:19;5.60;1.00
5218;DHT22;26539;51.064;6.346;2024-03-06T03:28:45;5.60;1.00
5218;DHT22;26539;51.064;6.346;2024-03-06T03:31:10;5.60;1.00
5218;DHT22;26539;51.064;6.346;2024-03-06T03:33:39;5.50;1.00
5218;DHT22;26539;51.064;6.346;2024-03-06T03:36:05;5.50;1.00
5218;DHT22;26539;51.064;6.346;2024-03-06T03:38:34;5.50;1.00
5218;DHT22;26539;51.064;6.346;2024-03-06T03:41:09;5.50;1.00
5218;DHT22;26539;51.064;6.346;2024-03-06T03:43:35;5.50;1.00
5218;DHT22;26539;51.064;6.346;2024-03-06T03:46:01;5.40;1.00
5218;DHT22;26539;51.064;6.346;2024-03-06T03:48:26;5.40;1.00
5218;DHT22;26539;51.064;6.346;2024-03-06T03:50:54;5.40;1.00
5218;DHT22;26539;51.064;6.346;2024-03-06T03:53:20;5.30;1.00
5218;DHT22;26539;51.064;6.346;2024-03-06T03:55:45;5.30;1.00
5218;DHT22;26539;51.064;6.346;2024-03-06T03:58:10;5.30;1.00
5218;DHT22;26539;51.064;6.346;2024-03-06T04:00:36;5.30;1.00
5218;DHT22;26539;51.064;6.346;2024-03-06T04:03:03;5.30;1.00
5218;DHT22;26539;51.064;6.346;2024-03-06T04:05:29;5.40;1.00
5218;DHT22;26539;51.064;6.346;2024-03-06T04:07:54;5.40;1.00
5218;DHT22;26539;51.064;6.346;2024-03-06T04:10:20;5.40;1.00
5218;DHT22;26539;51.064;6.346;2024-03-06T04:12:46;5.30;1.00
5218;DHT22;26539;51.064;6.346;2024-03-06T04:15:11;5.30;1.00
5218;DHT22;26539;51.064;6.346;2024-03-06T04:17:37;5.30;1.00
5218;DHT22;26539;51.064;6.346;2024-03-06T04:20:02;5.30;1.00
5218;DHT22;26539;51.064;6.346;2024-03-06T04:22:29;5.30;1.00
5218;DHT22;26539;51.064;6.346;2024-03-06T04:24:55;5.30;1.00
5218;DHT22;26539;51.064;6.346;2024-03-06T04:27:21;5.30;1.00
5218;DHT22;26539;51.064;6.346;2024-03-06T04:29:47;5.20;1.00
5218;DHT22;26539;51.064;6.346;2024-03-06T04:32:12;5.20;1.00
5218;DHT22;26539;51.064;6.346;2024-03-06T04:34:38;5.20;1.00
5218;DHT22;26539;51.064;6.346;2024-03-06T04:37:04;5.10;1.00
5218;DHT22;26539;51.064;6.346;2024-03-06T04:39:29;5.10;1.00
5218;DHT22;26539;51.064;6.346;2024-03-06T04:41:55;5.10;1.00
5218;DHT22;26539;51.064;6.346;2024-03-06T04:44:20;5.10;1.00
5218;DHT22;26539;51.064;6.346;2024-03-06T04:46:49;5.00;1.00
5218;DHT22;26539;51.064;6.346;2024-03-06T04:49:14;5.00;1.00
5218;DHT22;26539;51.064;6.346;2024-03-06T04:51:40;5.00;1.00
5218;DHT22;26539;51.064;6.346;2024-03-06T04:54:05;5.00;1.00
5218;DHT22;26539;51.064;6.346;2024-03-06T04:56:31;5.00;1.00
5218;DHT22;26539;51.064;6.346;2024-03-06T04:58:56;5.00;1.00
5218;DHT22;26539;51.064;6.346;2024-03-06T05:01:23;5.00;1.00
5218;DHT22;26539;51.064;6.346;2024-03-06T05:03:48;5.00;1.00
5218;DHT22;26539;51.064;6.346;2024-03-06T05:06:14;5.00;1.00
5218;DHT22;26539;51.064;6.346;2024-03-06T05:08:40;5.00;1.00
5218;DHT22;26539;51.064;6.346;2024-03-06T05:11:05;4.90;1.00
5218;DHT22;26539;51.064;6.346;2024-03-06T05:13:31;5.00;1.00
5218;DHT22;26539;51.064;6.346;2024-03-06T05:15:57;5.00;1.00
5218;DHT22;26539;51.064;6.346;2024-03-06T05:18:22;5.00;1.00
5218;DHT22;26539;51.064;6.346;2024-03-06T05:20:47;5.10;1.00
5218;DHT22;26539;51.064;6.346;2024-03-06T05:23:13;5.10;1.00
5218;DHT22;26539;51.064;6.346;2024-03-06T05:25:40;5.10;1.00
5218;DHT22;26539;51.064;6.346;2024-03-06T05:28:05;5.20;1.00
5218;DHT22;26539;51.064;6.346;2024-03-06T05:30:31;5.20;1.00
5218;DHT22;26539;51.064;6.346;2024-03-06T05:32:56;5.30;1.00
5218;DHT22;26539;51.064;6.346;2024-03-06T05:35:22;5.30;1.00
5218;DHT22;26539;51.064;6.346;2024-03-06T05:37:47;5.30;1.00
5218;DHT22;26539;51.064;6.346;2024-03-06T05:40:13;5.40;1.00
5218;DHT22;26539;51.064;6.346;2024-03-06T05:42:38;5.40;1.00
5218;DHT22;26539;51.064;6.346;2024-03-06T05:45:04;5.40;1.00
5218;DHT22;26539;51.064;6.346;2024-03-06T05:47:36;5.40;1.00
5218;DHT22;26539;51.064;6.346;2024-03-06T05:50:01;5.40;1.00
5218;DHT22;26539;51.064;6.346;2024-03-06T05:52:30;5.40;1.00
5218;DHT22;26539;51.064;6.346;2024-03-06T05:54:55;5.30;1.00
5218;DHT22;26539;51.064;6.346;2024-03-06T05:57:21;5.30;1.00
5218;DHT22;26539;51.064;6.346;2024-03-06T05:59:46;5.30;1.00
5218;DHT22;26539;51.064;6.346;2024-03-06T06:02:12;5.20;1.00
5218;DHT22;26539;51.064;6.346;2024-03-06T06:04:37;5.20;1.00
5218;DHT22;26539;51.064;6.346;2024-03-06T06:07:03;5.10;1.00
5218;DHT22;26539;51.064;6.346;2024-03-06T06:09:28;5.10;1.00
5218;DHT22;26539;51.064;6.346;2024-03-06T06:11:54;5.00;1.00
5218;DHT22;26539;51.064;6.346;2024-03-06T06:14:19;5.00;1.00
5218;DHT22;26539;51.064;6.346;2024-03-06T06:16:45;4.90;1.00
5218;DHT22;26539;51.064;6.346;2024-03-06T06:19:10;4.80;1.00
5218;DHT22;26539;51.064;6.346;2024-03-06T06:21:36;4.80;1.00
5218;DHT22;26539;51.064;6.346;2024-03-06T06:24:02;4.90;1.00
5218;DHT22;26539;51.064;6.346;2024-03-06T06:26:31;4.90;1.00
5218;DHT22;26539;51.064;6.346;2024-03-06T06:28:57;5.00;1.00
5218;DHT22;26539;51.064;6.346;2024-03-06T06:31:23;5.00;1.00
5218;DHT22;26539;51.064;6.346;2024-03-06T06:33:50;5.10;1.00
5218;DHT22;26539;51.064;6.346;2024-03-06T06:36:17;5.10;1.00
5218;DHT22;26539;51.064;6.346;2024-03-06T06:38:43;5.20;1.00
5218;DHT22;26539;51.064;6.346;2024-03-06T06:41:09;5.30;1.00
5218;DHT22;26539;51.064;6.346;2024-03-06T06:43:35;5.40;1.00
5218;DHT22;26539;51.064;6.346;2024-03-06T06:46:01;5.50;1.00
5218;DHT22;26539;51.064;6.346;2024-03-06T06:48:26;5.60;1.00
5218;DHT22;26539;51.064;6.346;2024-03-06T06:50:52;5.60;1.00
5218;DHT22;26539;51.064;6.346;2024-03-06T06:53:17;5.70;1.00
5218;DHT22;26539;51.064;6.346;2024-03-06T06:55:43;5.70;1.00
5218;DHT22;26539;51.064;6.346;2024-03-06T06:58:08;5.80;1.00
5218;DHT22;26539;51.064;6.346;2024-03-06T07:00:34;5.90;1.00
5218;DHT22;26539;51.064;6.346;2024-03-06T07:03:01;6.10;1.00
5218;DHT22;26539;51.064;6.346;2024-03-06T07:05:27;6.30;1.00
5218;DHT22;26539;51.064;6.346;2024-03-06T07:07:53;6.40;99.90
5218;DHT22;26539;51.064;6.346;2024-03-06T07:10:18;6.50;99.90
5218;DHT22;26539;51.064;6.346;2024-03-06T07:12:44;6.60;99.90
5218;DHT22;26539;51.064;6.346;2024-03-06T07:15:09;6.70;1.00
5218;DHT22;26539;51.064;6.346;2024-03-06T07:17:35;6.70;1.00
5218;DHT22;26539;51.064;6.346;2024-03-06T07:20:01;6.70;1.00
5218;DHT22;26539;51.064;6.346;2024-03-06T07:22:26;6.80;1.00
5218;DHT22;26539;51.064;6.346;2024-03-06T07:24:52;6.90;1.00
5218;DHT22;26539;51.064;6.346;2024-03-06T07:27:17;7.10;1.00
5218;DHT22;26539;51.064;6.346;2024-03-06T07:29:43;7.20;1.00
5218;DHT22;26539;51.064;6.346;2024-03-06T07:32:09;7.40;1.00
5218;DHT22;26539;51.064;6.346;2024-03-06T07:34:34;7.50;1.00
5218;DHT22;26539;51.064;6.346;2024-03-06T07:37:00;7.70;1.00
5218;DHT22;26539;51.064;6.346;2024-03-06T07:39:25;7.90;99.90
5218;DHT22;26539;51.064;6.346;2024-03-06T07:41:51;8.10;91.80
5218;DHT22;26539;51.064;6.346;2024-03-06T07:44:16;8.50;1.00
5218;DHT22;26539;51.064;6.346;2024-03-06T07:46:42;9.30;99.90
5218;DHT22;26539;51.064;6.346;2024-03-06T07:49:08;10.00;99.90
5218;DHT22;26539;51.064;6.346;2024-03-06T07:51:33;10.30;1.00
5218;DHT22;26539;51.064;6.346;2024-03-06T07:53:59;10.50;99.90
5218;DHT22;26539;51.064;6.346;2024-03-06T07:56:25;10.50;36.80
5218;DHT22;26539;51.064;6.346;2024-03-06T07:58:50;10.30;1.00
5218;DHT22;26539;51.064;6.346;2024-03-06T08:01:16;10.20;1.00
5218;DHT22;26539;51.064;6.346;2024-03-06T08:03:41;10.20;1.00
5218;DHT22;26539;51.064;6.346;2024-03-06T08:06:11;10.60;1.00
5218;DHT22;26539;51.064;6.346;2024-03-06T08:08:36;11.10;1.00
5218;DHT22;26539;51.064;6.346;2024-03-06T08:11:02;11.70;99.90
5218;DHT22;26539;51.064;6.346;2024-03-06T08:13:27;12.50;99.90
5218;DHT22;26539;51.064;6.346;2024-03-06T08:15:53;13.60;1.00
5218;DHT22;26539;51.064;6.346;2024-03-06T08:18:19;14.90;1.00
5218;DHT22;26539;51.064;6.346;2024-03-06T08:20:44;17.20;1.00
5218;DHT22;26539;51.064;6.346;2024-03-06T08:23:10;20.00;1.00
5218;DHT22;26539;51.064;6.346;2024-03-06T08:25:35;21.90;99.90
5218;DHT22;26539;51.064;6.346;2024-03-06T08:28:01;22.90;99.90
5218;DHT22;26539;51.064;6.346;2024-03-06T08:30:28;22.50;99.90
5218;DHT22;26539;51.064;6.346;2024-03-06T08:32:55;24.70;99.90
5218;DHT22;26539;51.064;6.346;2024-03-06T08:35:21;24.00;99.90
5218;DHT22;26539;51.064;6.346;2024-03-06T08:37:49;24.80;99.90
5218;DHT22;26539;51.064;6.346;2024-03-06T08:40:14;26.60;99.90
5218;DHT22;26539;51.064;6.346;2024-03-06T08:42:40;26.20;99.90
5218;DHT22;26539;51.064;6.346;2024-03-06T08:45:06;25.70;99.90
5218;DHT22;26539;51.064;6.346;2024-03-06T08:47:33;24.70;99.90
5218;DHT22;26539;51.064;6.346;2024-03-06T08:49:59;23.40;99.90
5218;DHT22;26539;51.064;6.346;2024-03-06T08:52:24;22.00;99.90
5218;DHT22;26539;51.064;6.346;2024-03-06T08:54:50;21.20;99.90
5218;DHT22;26539;51.064;6.346;2024-03-06T08:57:15;22.00;99.90
5218;DHT22;26539;51.064;6.346;2024-03-06T08:59:41;23.10;99.90
5218;DHT22;26539;51.064;6.346;2024-03-06T09:02:15;24.40;99.90
5218;DHT22;26539;51.064;6.346;2024-03-06T09:04:43;26.40;99.90
5218;DHT22;26539;51.064;6.346;2024-03-06T09:07:09;28.00;99.90
5218;DHT22;26539;51.064;6.346;2024-03-06T09:09:35;29.70;99.90
5218;DHT22;26539;51.064;6.346;2024-03-06T09:12:05;30.80;99.90
5218;DHT22;26539;51.064;6.346;2024-03-06T09:14:31;31.30;99.90
5218;DHT22;26539;51.064;6.346;2024-03-06T09:16:57;31.40;99.90
5218;DHT22;26539;51.064;6.346;2024-03-06T09:19:22;31.80;99.90
5218;DHT22;26539;51.064;6.346;2024-03-06T09:21:48;32.40;99.90
5218;DHT22;26539;51.064;6.346;2024-03-06T09:24:13;32.90;99.90
5218;DHT22;26539;51.064;6.346;2024-03-06T09:26:39;33.50;99.90
5218;DHT22;26539;51.064;6.346;2024-03-06T09:29:04;34.10;99.90
5218;DHT22;26539;51.064;6.346;2024-03-06T09:31:30;34.10;99.90
5218;DHT22;26539;51.064;6.346;2024-03-06T09:33:55;34.10;99.90
5218;DHT22;26539;51.064;6.346;2024-03-06T09:36:21;34.20;99.90
5218;DHT22;26539;51.064;6.346;2024-03-06T09:38:46;34.30;99.90
5218;DHT22;26539;51.064;6.346;2024-03-06T09:41:12;34.70;99.90
5218;DHT22;26539;51.064;6.346;2024-03-06T09:43:38;35.00;99.90
5218;DHT22;26539;51.064;6.346;2024-03-06T09:46:06;35.00;99.90
5218;DHT22;26539;51.064;6.346;2024-03-06T09:48:32;35.00;99.90
5218;DHT22;26539;51.064;6.346;2024-03-06T09:51:00;35.00;99.90
5218;DHT22;26539;51.064;6.346;2024-03-06T09:53:26;34.70;99.90
5218;DHT22;26539;51.064;6.346;2024-03-06T09:55:51;34.80;99.90
5218;DHT22;26539;51.064;6.346;2024-03-06T09:58:17;35.00;99.90
5218;DHT22;26539;51.064;6.346;2024-03-06T10:00:43;35.20;99.90
5218;DHT22;26539;51.064;6.346;2024-03-06T10:03:09;35.40;99.90
5218;DHT22;26539;51.064;6.346;2024-03-06T10:05:36;35.40;99.90
5218;DHT22;26539;51.064;6.346;2024-03-06T10:08:02;35.40;99.90
5218;DHT22;26539;51.064;6.346;2024-03-06T10:10:29;35.60;99.90
5218;DHT22;26539;51.064;6.346;2024-03-06T10:12:55;35.60;99.90
5218;DHT22;26539;51.064;6.346;2024-03-06T10:15:22;35.30;99.90
5218;DHT22;26539;51.064;6.346;2024-03-06T10:17:48;35.10;99.90
5218;DHT22;26539;51.064;6.346;2024-03-06T10:20:20;34.80;99.90
5218;DHT22;26539;51.064;6.346;2024-03-06T10:22:47;34.50;99.90
5218;DHT22;26539;51.064;6.346;2024-03-06T10:25:12;34.20;99.90
5218;DHT22;26539;51.064;6.346;2024-03-06T10:27:38;34.10;99.90
5218;DHT22;26539;51.064;6.346;2024-03-06T10:30:04;33.80;99.90
5218;DHT22;26539;51.064;6.346;2024-03-06T10:32:30;33.50;99.90
5218;DHT22;26539;51.064;6.346;2024-03-06T10:34:55;33.50;99.90
5218;DHT22;26539;51.064;6.346;2024-03-06T10:37:21;33.30;99.90
5218;DHT22;26539;51.064;6.346;2024-03-06T10:39:47;33.30;99.90
5218;DHT22;26539;51.064;6.346;2024-03-06T10:42:17;33.20;99.90
5218;DHT22;26539;51.064;6.346;2024-03-06T10:44:45;33.20;99.90
5218;DHT22;26539;51.064;6.346;2024-03-06T10:47:15;33.50;99.90
5218;DHT22;26539;51.064;6.346;2024-03-06T10:49:40;33.50;99.90
5218;DHT22;26539;51.064;6.346;2024-03-06T10:52:08;33.10;99.90
5218;DHT22;26539;51.064;6.346;2024-03-06T10:54:34;32.70;99.90
5218;DHT22;26539;51.064;6.346;2024-03-06T10:57:02;32.70;99.90
5218;DHT22;26539;51.064;6.346;2024-03-06T10:59:28;33.00;99.90
5218;DHT22;26539;51.064;6.346;2024-03-06T11:01:57;32.90;99.90
5218;DHT22;26539;51.064;6.346;2024-03-06T11:04:24;33.00;99.90
5218;DHT22;26539;51.064;6.346;2024-03-06T11:06:50;32.70;99.90
5218;DHT22;26539;51.064;6.346;2024-03-06T11:09:16;32.50;99.90
5218;DHT22;26539;51.064;6.346;2024-03-06T11:11:48;32.70;99.90
5218;DHT22;26539;51.064;6.346;2024-03-06T11:14:13;33.20;99.90
5218;DHT22;26539;51.064;6.346;2024-03-06T11:16:58;33.80;99.90
5218;DHT22;26539;51.064;6.346;2024-03-06T11:19:24;32.60;99.90
5218;DHT22;26539;51.064;6.346;2024-03-06T11:21:49;31.80;99.90
5218;DHT22;26539;51.064;6.346;2024-03-06T11:24:15;31.20;99.90
5218;DHT22;26539;51.064;6.346;2024-03-06T11:29:29;29.60;99.90
5218;DHT22;26539;51.064;6.346;2024-03-06T11:32:07;28.10;99.90
5218;DHT22;26539;51.064;6.346;2024-03-06T11:34:33;26.50;99.90
5218;DHT22;26539;51.064;6.346;2024-03-06T11:36:59;26.10;99.90
5218;DHT22;26539;51.064;6.346;2024-03-06T11:39:32;26.90;99.90
5218;DHT22;26539;51.064;6.346;2024-03-06T11:41:59;28.10;99.90
5218;DHT22;26539;51.064;6.346;2024-03-06T11:44:26;28.80;99.90
5218;DHT22;26539;51.064;6.346;2024-03-06T11:49:29;29.70;99.90
5218;DHT22;26539;51.064;6.346;2024-03-06T11:51:58;29.60;99.90
5218;DHT22;26539;51.064;6.346;2024-03-06T11:54:24;30.00;99.90
5218;DHT22;26539;51.064;6.346;2024-03-06T11:56:52;30.00;99.90
5218;DHT22;26539;51.064;6.346;2024-03-06T11:59:22;29.80;99.90
5218;DHT22;26539;51.064;6.346;2024-03-06T12:01:48;30.30;99.90
5218;DHT22;26539;51.064;6.346;2024-03-06T12:04:14;30.60;99.90
5218;DHT22;26539;51.064;6.346;2024-03-06T12:06:40;30.90;99.90
5218;DHT22;26539;51.064;6.346;2024-03-06T12:09:05;31.00;99.90
5218;DHT22;26539;51.064;6.346;2024-03-06T12:11:35;31.00;99.90
5218;DHT22;26539;51.064;6.346;2024-03-06T12:14:01;31.70;99.90
5218;DHT22;26539;51.064;6.346;2024-03-06T12:16:27;31.90;99.90
5218;DHT22;26539;51.064;6.346;2024-03-06T12:18:56;32.10;99.90
5218;DHT22;26539;51.064;6.346;2024-03-06T12:21:31;32.30;99.90
5218;DHT22;26539;51.064;6.346;2024-03-06T12:26:29;32.60;99.90
5218;DHT22;26539;51.064;6.346;2024-03-06T12:29:02;32.70;99.90
5218;DHT22;26539;51.064;6.346;2024-03-06T12:31:28;32.20;99.90
5218;DHT22;26539;51.064;6.346;2024-03-06T12:33:57;31.20;99.90
5218;DHT22;26539;51.064;6.346;2024-03-06T12:36:24;30.80;99.90
5218;DHT22;26539;51.064;6.346;2024-03-06T12:38:54;30.60;99.90
5218;DHT22;26539;51.064;6.346;2024-03-06T12:41:20;30.10;99.90
5218;DHT22;26539;51.064;6.346;2024-03-06T12:43:45;29.40;99.90
5218;DHT22;26539;51.064;6.346;2024-03-06T12:46:11;29.20;99.90
5218;DHT22;26539;51.064;6.346;2024-03-06T12:48:36;29.10;99.90
5218;DHT22;26539;51.064;6.346;2024-03-06T12:51:02;29.00;99.90
5218;DHT22;26539;51.064;6.346;2024-03-06T12:53:30;29.20;99.90
5218;DHT22;26539;51.064;6.346;2024-03-06T12:55:56;29.70;99.90
5218;DHT22;26539;51.064;6.346;2024-03-06T12:58:21;30.10;99.90
5218;DHT22;26539;51.064;6.346;2024-03-06T13:00:46;30.30;99.90
5218;DHT22;26539;51.064;6.346;2024-03-06T13:03:12;29.90;99.90
5218;DHT22;26539;51.064;6.346;2024-03-06T13:05:37;29.50;99.90
5218;DHT22;26539;51.064;6.346;2024-03-06T13:08:03;29.00;99.90
5218;DHT22;26539;51.064;6.346;2024-03-06T13:10:29;28.70;99.90
5218;DHT22;26539;51.064;6.346;2024-03-06T13:12:54;28.50;99.90
5218;DHT22;26539;51.064;6.346;2024-03-06T13:15:20;28.00;99.90
5218;DHT22;26539;51.064;6.346;2024-03-06T13:17:45;27.80;99.90
5218;DHT22;26539;51.064;6.346;2024-03-06T13:20:11;27.70;99.90
5218;DHT22;26539;51.064;6.346;2024-03-06T13:22:37;27.50;99.90
5218;DHT22;26539;51.064;6.346;2024-03-06T13:25:02;27.20;99.90
5218;DHT22;26539;51.064;6.346;2024-03-06T13:27:29;27.20;99.90
5218;DHT22;26539;51.064;6.346;2024-03-06T13:29:54;27.60;99.90
5218;DHT22;26539;51.064;6.346;2024-03-06T13:32:20;27.90;99.90
5218;DHT22;26539;51.064;6.346;2024-03-06T13:34:45;28.20;99.90
5218;DHT22;26539;51.064;6.346;2024-03-06T13:37:11;28.40;99.90
5218;DHT22;26539;51.064;6.346;2024-03-06T13:39:36;28.60;99.90
5218;DHT22;26539;51.064;6.346;2024-03-06T13:42:02;28.50;99.90
5218;DHT22;26539;51.064;6.346;2024-03-06T13:44:27;28.00;99.90
5218;DHT22;26539;51.064;6.346;2024-03-06T13:46:53;27.20;99.90
5218;DHT22;26539;51.064;6.346;2024-03-06T13:49:37;26.70;99.90
5218;DHT22;26539;51.064;6.346;2024-03-06T13:52:04;26.60;99.90
5218;DHT22;26539;51.064;6.346;2024-03-06T13:54:30;26.50;99.90
5218;DHT22;26539;51.064;6.346;2024-03-06T13:56:56;26.00;99.90
5218;DHT22;26539;51.064;6.346;2024-03-06T13:59:32;25.10;99.90
5218;DHT22;26539;51.064;6.346;2024-03-06T14:01:58;24.70;99.90
5218;DHT22;26539;51.064;6.346;2024-03-06T14:04:28;24.30;99.90
5218;DHT22;26539;51.064;6.346;2024-03-06T14:06:53;24.00;99.90
5218;DHT22;26539;51.064;6.346;2024-03-06T14:09:19;23.30;99.40
5218;DHT22;26539;51.064;6.346;2024-03-06T14:11:44;22.90;99.10
5218;DHT22;26539;51.064;6.346;2024-03-06T14:14:10;22.90;99.30
5218;DHT22;26539;51.064;6.346;2024-03-06T14:16:39;23.00;99.90
5218;DHT22;26539;51.064;6.346;2024-03-06T14:19:05;23.30;99.90
5218;DHT22;26539;51.064;6.346;2024-03-06T14:21:31;23.40;99.90
5218;DHT22;26539;51.064;6.346;2024-03-06T14:23:59;23.60;99.90
5218;DHT22;26539;51.064;6.346;2024-03-06T14:26:25;23.40;99.90
5218;DHT22;26539;51.064;6.346;2024-03-06T14:28:52;23.30;99.90
5218;DHT22;26539;51.064;6.346;2024-03-06T14:31:18;23.50;99.90
5218;DHT22;26539;51.064;6.346;2024-03-06T14:33:43;23.50;99.90
5218;DHT22;26539;51.064;6.346;2024-03-06T14:36:09;23.50;99.90
5218;DHT22;26539;51.064;6.346;2024-03-06T14:38:35;23.70;99.90
5218;DHT22;26539;51.064;6.346;2024-03-06T14:41:00;23.30;99.90
5218;DHT22;26539;51.064;6.346;2024-03-06T14:43:25;23.00;99.90
5218;DHT22;26539;51.064;6.346;2024-03-06T14:45:51;23.00;99.90
5218;DHT22;26539;51.064;6.346;2024-03-06T14:48:16;23.10;99.90
5218;DHT22;26539;51.064;6.346;2024-03-06T14:50:42;23.00;99.90
5218;DHT22;26539;51.064;6.346;2024-03-06T14:53:08;22.90;99.90
5218;DHT22;26539;51.064;6.346;2024-03-06T14:55:34;23.00;99.90
5218;DHT22;26539;51.064;6.346;2024-03-06T14:57:59;23.00;99.90
5218;DHT22;26539;51.064;6.346;2024-03-06T15:00:25;22.70;99.90
5218;DHT22;26539;51.064;6.346;2024-03-06T15:02:50;22.30;99.90
5218;DHT22;26539;51.064;6.346;2024-03-06T15:05:16;22.30;99.90
5218;DHT22;26539;51.064;6.346;2024-03-06T15:07:41;22.30;99.90
5218;DHT22;26539;51.064;6.346;2024-03-06T15:10:07;22.50;99.90
5218;DHT22;26539;51.064;6.346;2024-03-06T15:12:33;22.40;99.90
5218;DHT22;26539;51.064;6.346;2024-03-06T15:14:59;22.10;99.90
5218;DHT22;26539;51.064;6.346;2024-03-06T15:17:25;21.90;99.90
5218;DHT22;26539;51.064;6.346;2024-03-06T15:19:51;21.60;99.90
5218;DHT22;26539;51.064;6.346;2024-03-06T15:22:17;21.30;99.90
5218;DHT22;26539;51.064;6.346;2024-03-06T15:24:42;21.00;99.90
5218;DHT22;26539;51.064;6.346;2024-03-06T15:27:10;20.90;99.90
5218;DHT22;26539;51.064;6.346;2024-03-06T15:29:35;20.60;99.90
5218;DHT22;26539;51.064;6.346;2024-03-06T15:32:01;20.20;99.90
5218;DHT22;26539;51.064;6.346;2024-03-06T15:34:27;20.00;99.90
5218;DHT22;26539;51.064;6.346;2024-03-06T15:36:52;19.90;99.90
5218;DHT22;26539;51.064;6.346;2024-03-06T15:39:17;19.80;99.90
5218;DHT22;26539;51.064;6.346;2024-03-06T15:41:43;19.70;99.90
5218;DHT22;26539;51.064;6.346;2024-03-06T15:44:08;19.60;99.90
5218;DHT22;26539;51.064;6.346;2024-03-06T15:46:34;19.50;99.90
5218;DHT22;26539;51.064;6.346;2024-03-06T15:49:01;19.40;99.90
5218;DHT22;26539;51.064;6.346;2024-03-06T15:51:31;19.20;99.90
5218;DHT22;26539;51.064;6.346;2024-03-06T15:53:56;19.10;99.90
5218;DHT22;26539;51.064;6.346;2024-03-06T15:56:22;18.70;99.90
5218;DHT22;26539;51.064;6.346;2024-03-06T15:58:48;18.40;99.90
5218;DHT22;26539;51.064;6.346;2024-03-06T16:01:13;18.20;99.90
5218;DHT22;26539;51.064;6.346;2024-03-06T16:03:39;18.10;99.90